createdAt,value
2023-03-31T00:00:53.765Z,13.35
2023-03-31T00:01:58.541Z,8.05
2023-03-31T00:03:03.895Z,11.45
2023-03-31T00:04:09.370Z,8.80
2023-03-31T00:05:18.741Z,6.95
2023-03-31T00:06:23.490Z,11.30
2023-03-31T00:07:27.797Z,6.72
2023-03-31T00:08:36.120Z,5.50
2023-03-31T00:09:41.570Z,4.95
2023-03-31T00:10:48.653Z,5.63
2023-03-31T00:11:52.617Z,5.65
2023-03-31T00:12:56.716Z,5.45
2023-03-31T00:14:00.436Z,6.05
2023-03-31T00:15:04.145Z,5.18
2023-03-31T00:16:11.259Z,4.68
2023-03-31T00:17:15.666Z,5.30
2023-03-31T00:18:19.374Z,4.78
2023-03-31T00:19:23.313Z,6.85
2023-03-31T00:20:27.504Z,11.48
2023-03-31T00:21:34.491Z,8.40
2023-03-31T00:22:39.646Z,6.25
2023-03-31T00:23:43.341Z,12.38
2023-03-31T00:24:47.551Z,10.88
2023-03-31T00:25:51.177Z,14.68
2023-03-31T00:26:54.673Z,7.15
2023-03-31T00:27:58.651Z,5.72
2023-03-31T00:29:02.585Z,8.57
2023-03-31T00:30:06.716Z,7.22
2023-03-31T00:31:10.618Z,8.07
2023-03-31T00:32:15.249Z,7.57
2023-03-31T00:33:19.329Z,12.80
2023-03-31T00:34:23.521Z,15.50
2023-03-31T00:35:27.584Z,17.50
2023-03-31T00:36:32.165Z,15.23
2023-03-31T00:37:36.005Z,13.73
2023-03-31T00:38:40.109Z,8.55
2023-03-31T00:39:44.298Z,7.03
2023-03-31T00:40:47.991Z,6.60
2023-03-31T00:41:51.725Z,7.47
2023-03-31T00:42:55.738Z,9.02
2023-03-31T00:44:25.109Z,7.47
2023-03-31T00:45:32.138Z,12.75
2023-03-31T00:46:47.350Z,18.90
2023-03-31T00:48:04.691Z,15.00
2023-03-31T00:49:12.808Z,11.25
2023-03-31T00:50:19.795Z,9.88
2023-03-31T00:51:23.984Z,7.88
2023-03-31T00:52:38.135Z,6.65
2023-03-31T00:53:41.717Z,9.43
2023-03-31T00:54:46.460Z,18.08
2023-03-31T00:55:52.163Z,13.80
2023-03-31T00:56:58.972Z,7.90
2023-03-31T00:58:05.160Z,7.72
2023-03-31T00:59:10.238Z,5.80
2023-03-31T01:00:17.894Z,9.55
2023-03-31T01:01:25.148Z,7.43
2023-03-31T01:02:29.505Z,6.38
2023-03-31T01:03:33.997Z,8.73
2023-03-31T01:04:41.423Z,10.85
2023-03-31T01:05:49.366Z,17.60
2023-03-31T01:07:27.940Z,8.68
2023-03-31T01:08:32.061Z,11.25
2023-03-31T01:09:36.232Z,24.85
2023-03-31T01:10:42.957Z,31.10
2023-03-31T01:11:48.075Z,33.80
2023-03-31T01:12:54.627Z,29.65
2023-03-31T01:13:58.612Z,18.10
2023-03-31T01:15:02.382Z,28.70
2023-03-31T01:16:06.405Z,19.60
2023-03-31T01:17:10.342Z,16.25
2023-03-31T01:18:14.875Z,14.90
2023-03-31T01:19:25.785Z,14.00
2023-03-31T01:20:57.064Z,7.72
2023-03-31T01:22:24.865Z,6.47
2023-03-31T01:23:31.300Z,5.28
2023-03-31T01:24:40.035Z,5.43
2023-03-31T01:26:08.731Z,11.00
2023-03-31T01:27:22.764Z,7.38
2023-03-31T01:28:44.877Z,6.05
2023-03-31T01:30:07.881Z,7.88
2023-03-31T01:31:11.552Z,8.57
2023-03-31T01:32:28.855Z,5.43
2023-03-31T01:33:44.212Z,7.10
2023-03-31T01:35:09.300Z,6.63
2023-03-31T01:36:37.250Z,5.85
2023-03-31T01:38:36.507Z,4.78
2023-03-31T01:40:05.637Z,5.53
2023-03-31T01:41:51.164Z,5.28
2023-03-31T01:42:57.786Z,4.57
2023-03-31T01:44:19.129Z,4.65
2023-03-31T01:45:50.637Z,4.93
2023-03-31T01:47:12.038Z,4.45
2023-03-31T01:48:19.000Z,5.07
2023-03-31T01:50:01.288Z,4.40
2023-03-31T01:51:10.933Z,4.07
2023-03-31T01:52:29.668Z,4.37
2023-03-31T01:53:35.301Z,4.15
2023-03-31T01:54:41.715Z,4.63
2023-03-31T01:56:03.913Z,4.68
2023-03-31T01:57:16.142Z,4.00
2023-03-31T01:58:22.628Z,4.35
2023-03-31T01:59:29.514Z,4.32
2023-03-31T02:00:34.901Z,4.40
2023-03-31T02:01:39.804Z,4.55
2023-03-31T02:03:17.976Z,4.05
2023-03-31T02:04:30.509Z,3.70
2023-03-31T02:05:39.037Z,3.78
2023-03-31T02:06:47.205Z,3.38
2023-03-31T02:08:11.671Z,2.85
2023-03-31T02:09:18.151Z,4.22
2023-03-31T02:10:22.642Z,3.08
2023-03-31T02:11:26.940Z,3.25
2023-03-31T02:12:31.950Z,2.53
2023-03-31T02:13:36.622Z,2.97
2023-03-31T02:14:45.544Z,3.13
2023-03-31T02:15:52.031Z,3.45
2023-03-31T02:16:59.299Z,4.35
2023-03-31T02:18:07.120Z,4.63
2023-03-31T02:19:11.723Z,3.13
2023-03-31T02:20:16.063Z,3.10
2023-03-31T02:21:19.652Z,3.53
2023-03-31T02:22:23.313Z,4.85
2023-03-31T02:23:30.252Z,4.60
2023-03-31T02:24:33.891Z,4.65
2023-03-31T02:25:40.173Z,4.15
2023-03-31T02:27:08.319Z,4.45
2023-03-31T02:28:14.580Z,4.63
2023-03-31T02:29:22.715Z,4.30
2023-03-31T02:30:29.949Z,3.90
2023-03-31T02:31:53.801Z,4.70
2023-03-31T02:32:59.028Z,4.90
2023-03-31T02:34:03.961Z,5.07
2023-03-31T02:35:10.216Z,4.20
2023-03-31T02:36:14.336Z,4.43
2023-03-31T02:37:18.390Z,5.97
2023-03-31T02:38:22.537Z,6.10
2023-03-31T02:39:34.828Z,5.38
2023-03-31T02:40:38.837Z,6.15
2023-03-31T02:41:43.523Z,6.32
2023-03-31T02:42:47.282Z,5.18
2023-03-31T02:43:51.315Z,6.03
2023-03-31T02:44:55.730Z,5.15
2023-03-31T02:45:59.934Z,6.13
2023-03-31T02:47:08.065Z,5.93
2023-03-31T02:48:32.980Z,5.03
2023-03-31T02:49:36.855Z,5.90
2023-03-31T02:51:12.245Z,5.70
2023-03-31T02:52:39.068Z,5.75
2023-03-31T02:53:48.588Z,5.15
2023-03-31T02:54:59.514Z,4.93
2023-03-31T02:56:25.749Z,4.70
2023-03-31T02:58:06.073Z,5.60
2023-03-31T02:59:15.776Z,4.55
2023-03-31T03:01:03.931Z,5.20
2023-03-31T03:02:19.900Z,5.55
2023-03-31T03:03:41.800Z,5.18
2023-03-31T03:05:09.437Z,5.80
2023-03-31T03:06:30.901Z,5.53
2023-03-31T03:07:56.510Z,5.65
2023-03-31T03:09:05.424Z,6.10
2023-03-31T03:10:33.613Z,5.63
2023-03-31T03:12:19.765Z,5.70
2023-03-31T03:13:45.568Z,5.00
2023-03-31T03:16:42.235Z,4.80
2023-03-31T03:17:46.877Z,4.65
2023-03-31T03:19:00.345Z,4.13
2023-03-31T03:20:08.878Z,4.60
2023-03-31T03:21:12.944Z,4.07
2023-03-31T03:22:16.594Z,4.30
2023-03-31T03:23:20.223Z,5.05
2023-03-31T03:24:23.896Z,4.63
2023-03-31T03:25:27.811Z,5.03
2023-03-31T03:26:36.125Z,5.22
2023-03-31T03:27:40.374Z,5.18
2023-03-31T03:28:44.550Z,4.93
2023-03-31T03:29:48.646Z,4.07
2023-03-31T03:30:52.953Z,5.18
2023-03-31T03:31:56.715Z,4.38
2023-03-31T03:33:00.442Z,5.10
2023-03-31T03:34:04.662Z,5.25
2023-03-31T03:35:08.705Z,5.82
2023-03-31T03:36:12.797Z,5.18
2023-03-31T03:37:16.939Z,4.45
2023-03-31T03:38:20.968Z,4.40
2023-03-31T03:39:25.121Z,4.75
2023-03-31T03:40:28.871Z,4.63
2023-03-31T03:41:34.309Z,5.13
2023-03-31T03:42:39.130Z,4.30
2023-03-31T03:43:42.733Z,4.10
2023-03-31T03:44:46.285Z,3.60
2023-03-31T03:45:50.918Z,3.58
2023-03-31T03:46:54.952Z,4.32
2023-03-31T03:47:59.004Z,4.10
2023-03-31T03:49:03.257Z,3.92
2023-03-31T03:50:07.752Z,4.88
2023-03-31T03:51:11.310Z,4.47
2023-03-31T03:52:14.862Z,4.55
2023-03-31T03:53:18.814Z,4.95
2023-03-31T03:54:22.770Z,5.07
2023-03-31T03:55:26.584Z,5.70
2023-03-31T03:56:30.670Z,6.00
2023-03-31T03:57:34.722Z,7.60
2023-03-31T03:58:38.701Z,7.65
2023-03-31T03:59:42.769Z,6.53
2023-03-31T04:00:47.188Z,5.20
2023-03-31T04:01:50.873Z,5.15
2023-03-31T04:02:55.106Z,6.45
2023-03-31T04:03:59.264Z,4.80
2023-03-31T04:05:03.023Z,5.55
2023-03-31T04:06:07.073Z,5.63
2023-03-31T04:07:10.809Z,4.57
2023-03-31T04:08:14.785Z,6.05
2023-03-31T04:09:18.634Z,5.82
2023-03-31T04:10:22.614Z,6.43
2023-03-31T04:11:26.910Z,5.47
2023-03-31T04:12:30.990Z,8.05
2023-03-31T04:13:34.994Z,6.82
2023-03-31T04:14:38.579Z,5.70
2023-03-31T04:15:42.978Z,5.75
2023-03-31T04:16:47.436Z,5.90
2023-03-31T04:17:55.716Z,7.93
2023-03-31T04:19:00.381Z,8.30
2023-03-31T04:20:06.563Z,8.13
2023-03-31T04:21:12.993Z,6.30
2023-03-31T04:22:21.245Z,7.95
2023-03-31T04:23:27.596Z,5.70
2023-03-31T04:24:34.117Z,6.18
2023-03-31T04:25:39.658Z,7.35
2023-03-31T04:26:46.214Z,7.43
2023-03-31T04:27:55.617Z,8.10
2023-03-31T04:29:02.805Z,5.88
2023-03-31T04:30:09.936Z,5.85
2023-03-31T04:31:17.572Z,6.15
2023-03-31T04:32:22.303Z,6.35
2023-03-31T04:33:26.233Z,7.07
2023-03-31T04:34:39.276Z,6.65
2023-03-31T04:35:53.423Z,6.60
2023-03-31T04:36:57.029Z,6.00
2023-03-31T04:38:01.137Z,6.07
2023-03-31T04:39:05.246Z,5.47
2023-03-31T04:40:10.404Z,6.22
2023-03-31T04:41:15.295Z,5.47
2023-03-31T04:42:19.416Z,6.25
2023-03-31T04:43:23.372Z,5.50
2023-03-31T04:44:27.846Z,6.05
2023-03-31T04:45:31.864Z,5.75
2023-03-31T04:46:36.311Z,5.10
2023-03-31T04:47:40.153Z,6.43
2023-03-31T04:48:44.255Z,5.90
2023-03-31T04:49:48.314Z,6.13
2023-03-31T04:50:52.177Z,5.15
2023-03-31T04:51:56.280Z,6.43
2023-03-31T04:52:59.992Z,4.95
2023-03-31T04:54:04.021Z,6.50
2023-03-31T04:55:08.516Z,6.00
2023-03-31T04:56:12.460Z,6.35
2023-03-31T04:57:16.306Z,5.75
2023-03-31T04:58:20.323Z,6.35
2023-03-31T04:59:24.333Z,6.05
2023-03-31T05:00:29.910Z,8.13
2023-03-31T05:01:36.968Z,6.90
2023-03-31T05:02:40.755Z,6.53
2023-03-31T05:03:45.068Z,6.30
2023-03-31T05:04:49.111Z,6.55
2023-03-31T05:05:52.897Z,6.13
2023-03-31T05:06:57.154Z,7.05
2023-03-31T05:08:01.241Z,6.50
2023-03-31T05:09:04.999Z,6.45
2023-03-31T05:10:09.375Z,6.25
2023-03-31T05:11:13.062Z,6.82
2023-03-31T05:12:16.793Z,6.80
2023-03-31T05:13:20.414Z,5.90
2023-03-31T05:14:24.440Z,7.35
2023-03-31T05:15:28.688Z,5.72
2023-03-31T05:16:32.873Z,6.50
2023-03-31T05:17:37.514Z,5.95
2023-03-31T05:18:42.212Z,6.00
2023-03-31T05:19:46.487Z,5.32
2023-03-31T05:20:50.075Z,6.82
2023-03-31T05:21:54.101Z,5.70
2023-03-31T05:22:58.272Z,6.55
2023-03-31T05:24:02.300Z,6.63
2023-03-31T05:25:08.173Z,7.85
2023-03-31T05:26:12.588Z,6.97
2023-03-31T05:27:17.094Z,6.10
2023-03-31T05:28:20.736Z,7.15
2023-03-31T05:29:25.338Z,6.15
2023-03-31T05:30:29.803Z,6.38
2023-03-31T05:31:34.197Z,6.13
2023-03-31T05:32:38.442Z,6.53
2023-03-31T05:33:42.563Z,6.15
2023-03-31T05:34:46.898Z,6.72
2023-03-31T05:35:50.672Z,6.35
2023-03-31T05:36:54.530Z,6.35
2023-03-31T05:37:58.488Z,6.05
2023-03-31T05:39:02.333Z,6.10
2023-03-31T05:40:09.249Z,6.22
2023-03-31T05:41:13.373Z,5.97
2023-03-31T05:42:17.506Z,6.75
2023-03-31T05:43:21.353Z,7.18
2023-03-31T05:44:24.844Z,5.70
2023-03-31T05:45:28.839Z,5.70
2023-03-31T05:46:32.723Z,6.18
2023-03-31T05:47:36.291Z,6.25
2023-03-31T05:48:40.008Z,6.35
2023-03-31T05:49:43.947Z,6.15
2023-03-31T05:50:48.113Z,6.45
2023-03-31T05:51:52.844Z,6.03
2023-03-31T05:52:56.851Z,5.82
2023-03-31T05:54:01.021Z,5.88
2023-03-31T05:55:05.789Z,5.85
2023-03-31T05:56:09.697Z,6.53
2023-03-31T05:57:13.964Z,6.45
2023-03-31T05:58:18.016Z,6.50
2023-03-31T05:59:22.330Z,6.07
2023-03-31T06:00:26.240Z,5.60
2023-03-31T06:01:30.564Z,6.20
2023-03-31T06:02:34.591Z,6.32
2023-03-31T06:03:42.206Z,6.07
2023-03-31T06:04:46.113Z,6.68
2023-03-31T06:05:50.393Z,6.32
2023-03-31T06:06:55.106Z,6.00
2023-03-31T06:07:58.778Z,6.80
2023-03-31T06:09:02.814Z,7.10
2023-03-31T06:10:08.946Z,6.75
2023-03-31T06:11:14.166Z,6.97
2023-03-31T06:12:18.113Z,5.72
2023-03-31T06:13:22.255Z,5.88
2023-03-31T06:14:26.076Z,5.45
2023-03-31T06:15:29.602Z,5.10
2023-03-31T06:16:33.690Z,5.03
2023-03-31T06:17:38.613Z,6.47
2023-03-31T06:18:42.732Z,6.00
2023-03-31T06:19:46.902Z,6.55
2023-03-31T06:20:51.000Z,7.30
2023-03-31T06:21:55.015Z,7.15
2023-03-31T06:22:59.146Z,5.75
2023-03-31T06:24:02.794Z,6.32
2023-03-31T06:25:07.006Z,6.07
2023-03-31T06:26:14.325Z,6.53
2023-03-31T06:27:18.302Z,6.43
2023-03-31T06:28:22.459Z,5.93
2023-03-31T06:29:26.719Z,5.47
2023-03-31T06:30:30.750Z,6.22
2023-03-31T06:31:34.691Z,6.47
2023-03-31T06:32:38.382Z,7.07
2023-03-31T06:33:42.722Z,6.28
2023-03-31T06:34:46.643Z,6.85
2023-03-31T06:35:50.536Z,5.95
2023-03-31T06:36:54.627Z,6.15
2023-03-31T06:37:58.706Z,6.47
2023-03-31T06:39:02.875Z,8.00
2023-03-31T06:40:07.089Z,6.32
2023-03-31T06:41:13.261Z,6.45
2023-03-31T06:42:17.365Z,6.05
2023-03-31T06:43:23.254Z,6.43
2023-03-31T06:44:27.065Z,7.20
2023-03-31T06:45:30.941Z,6.75
2023-03-31T06:46:34.904Z,7.63
2023-03-31T06:47:39.157Z,6.72
2023-03-31T06:48:43.376Z,6.18
2023-03-31T06:49:47.041Z,6.00
2023-03-31T06:50:50.753Z,6.68
2023-03-31T06:51:54.808Z,6.90
2023-03-31T06:52:59.506Z,7.07
2023-03-31T06:54:03.019Z,7.00
2023-03-31T06:55:07.073Z,7.85
2023-03-31T06:56:11.197Z,6.80
2023-03-31T06:57:15.412Z,7.53
2023-03-31T06:58:19.164Z,7.00
2023-03-31T06:59:22.775Z,6.95
2023-03-31T07:00:28.172Z,6.03
2023-03-31T07:01:32.538Z,7.00
2023-03-31T07:02:37.720Z,6.38
2023-03-31T07:03:42.258Z,6.97
2023-03-31T07:04:46.420Z,6.10
2023-03-31T07:05:53.809Z,6.38
2023-03-31T07:06:59.289Z,7.10
2023-03-31T07:08:03.287Z,6.32
2023-03-31T07:09:07.358Z,5.85
2023-03-31T07:10:11.428Z,6.60
2023-03-31T07:11:15.725Z,6.15
2023-03-31T07:12:19.823Z,7.47
2023-03-31T07:13:23.622Z,6.82
2023-03-31T07:14:27.675Z,7.15
2023-03-31T07:15:31.418Z,6.32
2023-03-31T07:16:35.626Z,6.53
2023-03-31T07:17:43.056Z,6.82
2023-03-31T07:18:47.650Z,7.72
2023-03-31T07:19:51.441Z,8.48
2023-03-31T07:20:55.087Z,7.15
2023-03-31T07:21:59.267Z,5.72
2023-03-31T07:23:05.692Z,6.82
2023-03-31T07:24:09.790Z,5.85
2023-03-31T07:25:15.555Z,6.35
2023-03-31T07:26:19.745Z,6.40
2023-03-31T07:27:26.062Z,6.97
2023-03-31T07:28:30.985Z,6.25
2023-03-31T07:29:34.934Z,5.65
2023-03-31T07:30:39.119Z,6.55
2023-03-31T07:31:43.081Z,6.57
2023-03-31T07:32:51.114Z,6.40
2023-03-31T07:33:55.658Z,6.25
2023-03-31T07:34:59.459Z,6.75
2023-03-31T07:36:12.437Z,7.28
2023-03-31T07:37:17.835Z,6.03
2023-03-31T07:38:21.875Z,5.63
2023-03-31T07:39:25.569Z,6.68
2023-03-31T07:40:30.161Z,6.00
2023-03-31T07:41:34.340Z,6.30
2023-03-31T07:42:38.460Z,5.43
2023-03-31T07:43:42.543Z,5.82
2023-03-31T07:44:46.276Z,6.07
2023-03-31T07:45:50.454Z,6.65
2023-03-31T07:46:54.716Z,5.95
2023-03-31T07:47:58.833Z,6.95
2023-03-31T07:49:04.281Z,7.82
2023-03-31T07:50:09.012Z,6.15
2023-03-31T07:51:13.282Z,6.07
2023-03-31T07:52:18.376Z,5.80
2023-03-31T07:53:22.268Z,6.88
2023-03-31T07:54:26.708Z,6.55
2023-03-31T07:55:30.783Z,6.50
2023-03-31T07:56:34.964Z,6.32
2023-03-31T07:57:39.397Z,6.85
2023-03-31T07:58:43.481Z,6.40
2023-03-31T07:59:47.781Z,6.45
2023-03-31T08:00:51.473Z,6.78
2023-03-31T08:01:55.665Z,6.40
2023-03-31T08:03:00.078Z,6.05
2023-03-31T08:04:04.932Z,6.45
2023-03-31T08:05:09.425Z,6.82
2023-03-31T08:06:13.412Z,6.45
2023-03-31T08:07:18.140Z,7.10
2023-03-31T08:08:22.345Z,5.95
2023-03-31T08:09:26.611Z,6.15
2023-03-31T08:10:30.759Z,6.57
2023-03-31T08:11:34.547Z,6.43
2023-03-31T08:12:38.257Z,7.68
2023-03-31T08:13:42.389Z,6.93
2023-03-31T08:14:46.065Z,6.00
2023-03-31T08:15:49.760Z,7.53
2023-03-31T08:16:56.023Z,7.18
2023-03-31T08:17:59.662Z,7.03
2023-03-31T08:19:04.231Z,6.97
2023-03-31T08:20:09.143Z,6.18
2023-03-31T08:21:13.499Z,6.30
2023-03-31T08:22:17.752Z,6.60
2023-03-31T08:23:28.316Z,6.57
2023-03-31T08:24:35.569Z,7.15
2023-03-31T08:25:39.672Z,7.65
2023-03-31T08:26:44.921Z,7.03
2023-03-31T08:27:55.642Z,7.13
2023-03-31T08:29:00.120Z,6.78
2023-03-31T08:30:05.315Z,6.70
2023-03-31T08:31:09.503Z,6.63
2023-03-31T08:32:13.357Z,6.78
2023-03-31T08:33:17.196Z,6.80
2023-03-31T08:34:20.842Z,6.63
2023-03-31T08:35:24.477Z,6.75
2023-03-31T08:36:28.651Z,7.18
2023-03-31T08:37:33.407Z,6.03
2023-03-31T08:38:42.281Z,6.13
2023-03-31T08:39:46.889Z,6.55
2023-03-31T08:40:50.678Z,6.55
2023-03-31T08:42:05.169Z,6.03
2023-03-31T08:43:19.511Z,6.78
2023-03-31T08:44:32.270Z,6.28
2023-03-31T08:45:41.014Z,6.68
2023-03-31T08:46:44.701Z,6.35
2023-03-31T08:47:49.470Z,6.28
2023-03-31T08:48:55.636Z,7.03
2023-03-31T08:50:00.418Z,5.85
2023-03-31T08:51:40.581Z,6.65
2023-03-31T08:53:06.015Z,6.95
2023-03-31T08:54:38.404Z,6.93
2023-03-31T08:55:53.887Z,6.85
2023-03-31T08:56:58.131Z,5.68
2023-03-31T08:58:14.961Z,7.18
2023-03-31T08:59:32.356Z,6.00
2023-03-31T09:00:45.014Z,6.43
2023-03-31T09:01:57.308Z,6.60
2023-03-31T09:03:07.552Z,6.90
2023-03-31T09:05:31.925Z,6.10
2023-03-31T09:06:41.365Z,5.40
2023-03-31T09:07:47.983Z,6.88
2023-03-31T09:08:51.701Z,7.07
2023-03-31T09:10:07.232Z,6.78
2023-03-31T09:11:38.219Z,6.45
2023-03-31T09:12:45.138Z,6.93
2023-03-31T09:14:53.822Z,7.22
2023-03-31T09:16:16.926Z,6.75
2023-03-31T09:17:34.871Z,6.60
2023-03-31T09:18:39.679Z,6.93
2023-03-31T09:19:51.169Z,6.18
2023-03-31T09:21:03.284Z,5.90
2023-03-31T09:22:11.325Z,6.20
2023-03-31T09:23:34.762Z,6.82
2023-03-31T09:24:53.075Z,6.03
2023-03-31T09:25:57.265Z,6.55
2023-03-31T09:27:06.534Z,7.18
2023-03-31T09:28:20.798Z,5.85
2023-03-31T09:29:57.932Z,6.75
2023-03-31T09:31:04.443Z,6.00
2023-03-31T09:32:21.419Z,6.18
2023-03-31T09:33:32.975Z,5.72
2023-03-31T09:34:37.529Z,6.15
2023-03-31T09:35:41.710Z,5.60
2023-03-31T09:36:46.305Z,5.80
2023-03-31T09:37:50.304Z,5.60
2023-03-31T09:38:54.372Z,5.22
2023-03-31T09:40:00.397Z,5.57
2023-03-31T09:41:04.557Z,5.95
2023-03-31T09:42:08.724Z,5.18
2023-03-31T09:43:24.118Z,5.32
2023-03-31T09:44:29.091Z,5.30
2023-03-31T09:45:34.662Z,5.93
2023-03-31T09:46:39.400Z,5.68
2023-03-31T09:47:44.773Z,5.35
2023-03-31T09:48:56.042Z,5.40
2023-03-31T09:50:00.273Z,5.15
2023-03-31T09:51:09.071Z,5.35
2023-03-31T09:52:31.584Z,5.55
2023-03-31T09:53:36.468Z,6.15
2023-03-31T09:54:47.728Z,6.47
2023-03-31T09:55:54.025Z,5.57
2023-03-31T09:56:57.912Z,5.78
2023-03-31T09:58:05.039Z,7.10
2023-03-31T09:59:18.622Z,5.93
2023-03-31T10:00:24.120Z,5.38
2023-03-31T10:01:28.294Z,5.60
2023-03-31T10:02:38.786Z,5.22
2023-03-31T10:03:53.005Z,5.35
2023-03-31T10:04:56.829Z,5.68
2023-03-31T10:06:00.969Z,5.90
2023-03-31T10:07:05.657Z,5.03
2023-03-31T10:08:19.267Z,5.80
2023-03-31T10:09:27.574Z,5.88
2023-03-31T10:10:34.627Z,6.07
2023-03-31T10:11:38.639Z,6.00
2023-03-31T10:12:43.716Z,5.40
2023-03-31T10:13:49.394Z,6.50
2023-03-31T10:14:55.743Z,6.20
2023-03-31T10:16:13.759Z,5.25
2023-03-31T10:17:19.250Z,5.60
2023-03-31T10:18:23.174Z,6.40
2023-03-31T10:19:28.362Z,5.28
2023-03-31T10:20:38.268Z,5.78
2023-03-31T10:21:42.450Z,5.78
2023-03-31T10:22:47.101Z,6.15
2023-03-31T10:23:51.832Z,5.18
2023-03-31T10:24:55.934Z,6.55
2023-03-31T10:26:00.070Z,6.30
2023-03-31T10:27:03.749Z,5.55
2023-03-31T10:28:07.422Z,5.75
2023-03-31T10:29:14.683Z,5.55
2023-03-31T10:30:29.845Z,5.55
2023-03-31T10:31:37.736Z,5.90
2023-03-31T10:32:43.782Z,5.55
2023-03-31T10:33:50.007Z,5.30
2023-03-31T10:34:54.310Z,5.65
2023-03-31T10:35:59.709Z,5.07
2023-03-31T10:37:05.000Z,5.50
2023-03-31T10:38:28.174Z,5.38
2023-03-31T10:39:33.496Z,5.60
2023-03-31T10:40:37.892Z,5.18
2023-03-31T10:41:42.248Z,5.43
2023-03-31T10:42:47.490Z,5.50
2023-03-31T10:44:01.892Z,5.68
2023-03-31T10:45:36.676Z,5.82
2023-03-31T10:46:43.452Z,5.80
2023-03-31T10:47:49.522Z,6.15
2023-03-31T10:48:53.798Z,5.60
2023-03-31T10:49:58.581Z,5.55
2023-03-31T10:51:07.322Z,5.75
2023-03-31T10:52:29.674Z,5.88
2023-03-31T10:53:54.988Z,5.25
2023-03-31T10:55:04.383Z,6.15
2023-03-31T10:56:13.852Z,5.85
2023-03-31T10:57:18.406Z,5.82
2023-03-31T10:59:02.335Z,5.10
2023-03-31T11:00:25.249Z,5.38
2023-03-31T11:01:39.911Z,5.55
2023-03-31T11:02:52.546Z,5.35
2023-03-31T11:04:28.835Z,5.40
2023-03-31T11:05:55.953Z,5.18
2023-03-31T11:07:07.679Z,5.05
2023-03-31T11:08:44.541Z,5.25
2023-03-31T11:10:01.096Z,5.05
2023-03-31T11:11:11.698Z,5.78
2023-03-31T11:12:21.003Z,6.18
2023-03-31T11:13:42.969Z,5.40
2023-03-31T11:14:55.269Z,5.55
2023-03-31T11:16:17.283Z,5.03
2023-03-31T11:17:26.546Z,5.47
2023-03-31T11:18:53.276Z,6.10
2023-03-31T11:20:10.408Z,5.95
2023-03-31T11:21:32.978Z,5.13
2023-03-31T11:23:08.762Z,6.30
2023-03-31T11:24:34.739Z,4.97
2023-03-31T11:25:58.815Z,5.15
2023-03-31T11:27:27.229Z,5.57
2023-03-31T11:29:02.749Z,5.60
2023-03-31T11:30:18.608Z,5.45
2023-03-31T11:31:28.892Z,5.72
2023-03-31T11:32:58.264Z,5.13
2023-03-31T11:34:10.969Z,5.90
2023-03-31T11:35:18.994Z,5.63
2023-03-31T11:36:32.256Z,5.15
2023-03-31T11:37:42.172Z,5.53
2023-03-31T11:39:00.863Z,5.82
2023-03-31T11:40:45.735Z,6.40
2023-03-31T11:41:52.147Z,5.72
2023-03-31T11:43:19.323Z,5.95
2023-03-31T11:44:23.817Z,5.22
2023-03-31T11:45:30.722Z,5.05
2023-03-31T11:46:40.352Z,5.85
2023-03-31T11:47:45.314Z,5.45
2023-03-31T11:49:02.516Z,6.30
2023-03-31T11:50:12.648Z,5.40
2023-03-31T11:52:43.358Z,5.40
2023-03-31T11:53:47.024Z,6.00
2023-03-31T11:54:53.110Z,5.75
2023-03-31T11:55:57.156Z,5.88
2023-03-31T11:57:03.722Z,5.43
2023-03-31T11:58:12.261Z,4.55
2023-03-31T11:59:17.588Z,4.22
2023-03-31T12:00:28.009Z,4.63
2023-03-31T12:01:44.604Z,4.97
2023-03-31T12:02:56.225Z,4.25
2023-03-31T12:04:07.877Z,4.95
2023-03-31T12:05:12.357Z,4.57
2023-03-31T12:06:21.716Z,3.97
2023-03-31T12:07:32.201Z,5.82
2023-03-31T12:08:47.797Z,4.93
2023-03-31T12:10:14.514Z,5.43
2023-03-31T12:11:21.386Z,4.85
2023-03-31T12:12:28.696Z,4.90
2023-03-31T12:13:50.949Z,5.13
2023-03-31T12:14:56.275Z,5.03
2023-03-31T12:16:02.411Z,5.05
2023-03-31T12:17:13.879Z,4.28
2023-03-31T12:18:22.032Z,4.85
2023-03-31T12:19:43.587Z,5.07
2023-03-31T12:20:53.176Z,4.45
2023-03-31T12:22:00.129Z,5.43
2023-03-31T12:23:04.514Z,6.00
2023-03-31T12:24:14.234Z,4.93
2023-03-31T12:25:24.236Z,6.20
2023-03-31T12:27:55.256Z,4.53
2023-03-31T12:29:01.511Z,4.05
2023-03-31T12:30:29.922Z,4.63
2023-03-31T12:31:36.653Z,4.97
2023-03-31T12:32:44.749Z,4.50
2023-03-31T12:33:55.144Z,5.20
2023-03-31T12:35:05.695Z,4.43
2023-03-31T12:36:33.666Z,5.13
2023-03-31T12:37:59.715Z,4.93
2023-03-31T12:39:09.435Z,5.28
2023-03-31T12:40:40.182Z,4.50
2023-03-31T12:42:09.534Z,4.45
2023-03-31T12:43:20.288Z,5.50
2023-03-31T12:44:29.831Z,5.10
2023-03-31T12:45:40.295Z,5.18
2023-03-31T12:47:13.182Z,5.10
2023-03-31T12:48:34.894Z,4.97
2023-03-31T12:50:01.808Z,4.38
2023-03-31T12:51:34.260Z,4.55
2023-03-31T12:53:00.615Z,4.95
2023-03-31T12:54:23.766Z,4.75
2023-03-31T12:55:38.815Z,4.47
2023-03-31T12:57:01.729Z,4.38
2023-03-31T12:58:47.280Z,4.63
2023-03-31T13:00:15.294Z,4.13
2023-03-31T13:01:25.087Z,4.85
2023-03-31T13:04:18.706Z,4.35
2023-03-31T13:05:40.260Z,4.28
2023-03-31T13:06:44.211Z,4.38
2023-03-31T13:07:47.990Z,4.00
2023-03-31T13:08:52.752Z,3.88
2023-03-31T13:10:00.563Z,3.45
2023-03-31T13:11:04.245Z,3.90
2023-03-31T13:12:09.897Z,4.43
2023-03-31T13:13:15.579Z,4.40
2023-03-31T13:14:24.725Z,4.00
2023-03-31T13:15:29.091Z,3.78
2023-03-31T13:16:37.486Z,3.97
2023-03-31T13:17:41.950Z,3.65
2023-03-31T13:18:48.405Z,3.65
2023-03-31T13:19:52.928Z,3.92
2023-03-31T13:21:01.206Z,4.55
2023-03-31T13:22:06.010Z,4.15
2023-03-31T13:23:21.504Z,4.55
2023-03-31T13:24:26.498Z,5.05
2023-03-31T13:25:41.232Z,4.60
2023-03-31T13:26:48.367Z,4.53
2023-03-31T13:27:54.686Z,4.72
2023-03-31T13:29:12.769Z,4.68
2023-03-31T13:30:37.630Z,4.18
2023-03-31T13:32:02.732Z,4.88
2023-03-31T13:33:17.770Z,4.70
2023-03-31T13:34:22.670Z,4.15
2023-03-31T13:35:28.153Z,4.80
2023-03-31T13:36:34.759Z,4.70
2023-03-31T13:38:08.260Z,4.20
2023-03-31T13:39:36.365Z,5.90
2023-03-31T13:41:03.756Z,5.32
2023-03-31T13:42:16.086Z,4.88
2023-03-31T13:43:42.196Z,4.32
2023-03-31T13:45:10.638Z,4.97
2023-03-31T13:46:37.185Z,6.03
2023-03-31T13:48:10.293Z,4.70
2023-03-31T13:49:26.369Z,4.75
2023-03-31T13:50:39.092Z,4.68
2023-03-31T13:52:05.469Z,5.07
2023-03-31T13:53:31.411Z,5.22
2023-03-31T13:54:54.962Z,4.88
2023-03-31T13:56:10.803Z,23.70
2023-03-31T13:57:51.509Z,4.90
2023-03-31T14:00:42.642Z,4.35
2023-03-31T14:01:55.064Z,4.28
2023-03-31T14:03:18.406Z,4.47
2023-03-31T14:04:22.361Z,4.68
2023-03-31T14:05:46.093Z,3.92
2023-03-31T14:07:19.975Z,5.30
2023-03-31T14:09:06.398Z,4.32
2023-03-31T14:10:33.495Z,4.43
2023-03-31T14:11:37.708Z,5.43
2023-03-31T14:12:41.455Z,4.70
2023-03-31T14:13:45.522Z,5.60
2023-03-31T14:14:49.791Z,5.78
2023-03-31T14:15:54.811Z,5.80
2023-03-31T14:17:00.571Z,4.38
2023-03-31T14:18:05.824Z,4.38
2023-03-31T14:19:28.368Z,5.15
2023-03-31T14:20:43.635Z,5.45
2023-03-31T14:21:50.700Z,5.43
2023-03-31T14:23:00.016Z,5.40
2023-03-31T14:24:28.098Z,5.70
2023-03-31T14:25:47.681Z,5.28
2023-03-31T14:27:03.464Z,6.40
2023-03-31T14:28:27.231Z,4.85
2023-03-31T14:29:52.389Z,4.15
2023-03-31T14:31:14.804Z,4.80
2023-03-31T14:32:24.675Z,4.88
2023-03-31T14:33:55.549Z,4.93
2023-03-31T14:35:39.996Z,4.93
2023-03-31T14:36:53.329Z,4.18
2023-03-31T14:37:57.813Z,3.88
2023-03-31T14:39:05.856Z,4.35
2023-03-31T14:40:14.582Z,3.58
2023-03-31T14:41:21.409Z,3.92
2023-03-31T14:42:38.685Z,4.47
2023-03-31T14:43:45.263Z,4.80
2023-03-31T14:44:49.180Z,5.03
2023-03-31T14:46:03.651Z,4.63
2023-03-31T14:47:07.501Z,4.32
2023-03-31T14:48:14.567Z,4.93
2023-03-31T14:50:03.111Z,4.38
2023-03-31T14:51:10.506Z,4.72
2023-03-31T14:52:24.058Z,4.20
2023-03-31T14:53:28.775Z,4.65
2023-03-31T14:54:35.430Z,4.53
2023-03-31T14:55:54.821Z,5.28
2023-03-31T14:57:03.250Z,4.95
2023-03-31T14:58:07.128Z,4.85
2023-03-31T14:59:10.632Z,4.53
2023-03-31T15:00:18.428Z,5.30
2023-03-31T15:01:28.818Z,6.10
2023-03-31T15:02:52.977Z,3.65
2023-03-31T15:03:57.132Z,4.10
2023-03-31T15:05:02.791Z,4.55
2023-03-31T15:06:07.222Z,5.30
2023-03-31T15:07:11.758Z,4.50
2023-03-31T15:08:19.609Z,4.70
2023-03-31T15:09:28.503Z,4.13
2023-03-31T15:10:40.718Z,4.75
2023-03-31T15:11:44.718Z,4.75
2023-03-31T15:12:52.830Z,4.95
2023-03-31T15:14:05.228Z,4.57
2023-03-31T15:15:12.061Z,4.95
2023-03-31T15:16:45.865Z,4.68
2023-03-31T15:17:49.810Z,5.00
2023-03-31T15:18:55.602Z,5.03
2023-03-31T15:20:00.994Z,4.65
2023-03-31T15:21:04.826Z,6.95
2023-03-31T15:22:16.966Z,5.00
2023-03-31T15:23:28.755Z,5.07
2023-03-31T15:24:32.600Z,4.82
2023-03-31T15:25:38.898Z,4.68
2023-03-31T15:27:06.839Z,5.03
2023-03-31T15:28:15.446Z,4.82
2023-03-31T15:29:22.659Z,5.78
2023-03-31T15:30:27.091Z,4.70
2023-03-31T15:31:31.905Z,5.43
2023-03-31T15:32:39.948Z,5.28
2023-03-31T15:33:44.202Z,5.80
2023-03-31T15:34:48.612Z,4.40